sensor_id;sensor_type;location;lat;lon;timestamp;P1;durP1;ratioP1;P2;durP2;ratioP2
77040;SDS011;65974;42.664;23.264;2023-07-31T00:02:01;9.75;;;5.90;;
77040;SDS011;65974;42.664;23.264;2023-07-31T00:04:26;11.65;;;6.63;;
77040;SDS011;65974;42.664;23.264;2023-07-31T00:06:52;9.63;;;5.97;;
77040;SDS011;65974;42.664;23.264;2023-07-31T00:09:17;12.95;;;6.47;;
77040;SDS011;65974;42.664;23.264;2023-07-31T00:11:43;9.98;;;6.68;;
77040;SDS011;65974;42.664;23.264;2023-07-31T00:14:08;9.57;;;5.55;;
77040;SDS011;65974;42.664;23.264;2023-07-31T00:16:33;9.52;;;5.85;;
77040;SDS011;65974;42.664;23.264;2023-07-31T00:18:59;7.82;;;5.68;;
77040;SDS011;65974;42.664;23.264;2023-07-31T00:21:24;8.55;;;6.20;;
77040;SDS011;65974;42.664;23.264;2023-07-31T00:23:50;8.95;;;5.55;;
77040;SDS011;65974;42.664;23.264;2023-07-31T00:26:15;12.18;;;6.45;;
77040;SDS011;65974;42.664;23.264;2023-07-31T00:28:41;9.63;;;6.43;;
77040;SDS011;65974;42.664;23.264;2023-07-31T00:31:06;9.80;;;6.68;;
77040;SDS011;65974;42.664;23.264;2023-07-31T00:33:32;10.43;;;6.22;;
77040;SDS011;65974;42.664;23.264;2023-07-31T00:35:57;12.23;;;6.60;;
77040;SDS011;65974;42.664;23.264;2023-07-31T00:38:22;10.35;;;6.93;;
77040;SDS011;65974;42.664;23.264;2023-07-31T00:40:48;9.57;;;6.43;;
77040;SDS011;65974;42.664;23.264;2023-07-31T00:43:13;10.70;;;7.60;;
77040;SDS011;65974;42.664;23.264;2023-07-31T00:45:39;9.63;;;6.85;;
77040;SDS011;65974;42.664;23.264;2023-07-31T00:48:04;12.10;;;7.10;;
77040;SDS011;65974;42.664;23.264;2023-07-31T00:50:33;12.27;;;8.27;;
77040;SDS011;65974;42.664;23.264;2023-07-31T00:53:00;14.50;;;8.18;;
77040;SDS011;65974;42.664;23.264;2023-07-31T00:55:25;13.15;;;8.27;;
77040;SDS011;65974;42.664;23.264;2023-07-31T00:57:51;13.50;;;8.85;;
77040;SDS011;65974;42.664;23.264;2023-07-31T01:00:18;16.92;;;9.63;;
77040;SDS011;65974;42.664;23.264;2023-07-31T01:02:44;16.90;;;11.05;;
77040;SDS011;65974;42.664;23.264;2023-07-31T01:05:09;17.58;;;11.38;;
77040;SDS011;65974;42.664;23.264;2023-07-31T01:07:42;21.20;;;11.48;;
77040;SDS011;65974;42.664;23.264;2023-07-31T01:10:21;17.63;;;12.43;;
77040;SDS011;65974;42.664;23.264;2023-07-31T01:12:50;20.67;;;12.93;;
77040;SDS011;65974;42.664;23.264;2023-07-31T01:15:16;20.63;;;14.25;;
77040;SDS011;65974;42.664;23.264;2023-07-31T01:17:42;22.08;;;13.77;;
77040;SDS011;65974;42.664;23.264;2023-07-31T01:20:18;25.92;;;15.38;;
77040;SDS011;65974;42.664;23.264;2023-07-31T01:31:16;29.92;;;17.90;;
77040;SDS011;65974;42.664;23.264;2023-07-31T01:33:44;34.75;;;20.15;;
77040;SDS011;65974;42.664;23.264;2023-07-31T01:36:11;34.38;;;20.73;;
77040;SDS011;65974;42.664;23.264;2023-07-31T01:38:37;31.35;;;19.73;;
77040;SDS011;65974;42.664;23.264;2023-07-31T01:41:02;37.35;;;21.20;;
77040;SDS011;65974;42.664;23.264;2023-07-31T01:43:27;41.13;;;23.55;;
77040;SDS011;65974;42.664;23.264;2023-07-31T01:45:53;41.15;;;23.10;;
77040;SDS011;65974;42.664;23.264;2023-07-31T01:48:18;38.85;;;21.77;;
77040;SDS011;65974;42.664;23.264;2023-07-31T01:50:44;40.97;;;23.08;;
77040;SDS011;65974;42.664;23.264;2023-07-31T01:53:09;44.67;;;24.30;;
77040;SDS011;65974;42.664;23.264;2023-07-31T01:55:37;40.60;;;23.02;;
77040;SDS011;65974;42.664;23.264;2023-07-31T01:58:02;43.05;;;24.10;;
77040;SDS011;65974;42.664;23.264;2023-07-31T02:00:28;41.60;;;24.35;;
77040;SDS011;65974;42.664;23.264;2023-07-31T02:02:53;43.03;;;23.67;;
77040;SDS011;65974;42.664;23.264;2023-07-31T02:05:18;43.50;;;24.08;;
77040;SDS011;65974;42.664;23.264;2023-07-31T02:07:44;42.35;;;24.20;;
77040;SDS011;65974;42.664;23.264;2023-07-31T02:10:09;45.08;;;24.27;;
77040;SDS011;65974;42.664;23.264;2023-07-31T02:12:35;42.13;;;25.42;;
77040;SDS011;65974;42.664;23.264;2023-07-31T02:15:00;41.97;;;22.98;;
77040;SDS011;65974;42.664;23.264;2023-07-31T02:17:26;46.05;;;25.63;;
77040;SDS011;65974;42.664;23.264;2023-07-31T02:19:51;45.13;;;26.05;;
77040;SDS011;65974;42.664;23.264;2023-07-31T02:22:16;44.80;;;24.75;;
77040;SDS011;65974;42.664;23.264;2023-07-31T02:24:43;40.53;;;24.98;;
77040;SDS011;65974;42.664;23.264;2023-07-31T02:27:08;44.13;;;25.25;;
77040;SDS011;65974;42.664;23.264;2023-07-31T02:29:33;44.38;;;24.75;;
77040;SDS011;65974;42.664;23.264;2023-07-31T02:31:59;42.47;;;23.60;;
77040;SDS011;65974;42.664;23.264;2023-07-31T02:34:24;41.85;;;23.98;;
77040;SDS011;65974;42.664;23.264;2023-07-31T02:36:50;49.03;;;24.73;;
77040;SDS011;65974;42.664;23.264;2023-07-31T02:39:15;44.50;;;25.17;;
77040;SDS011;65974;42.664;23.264;2023-07-31T02:41:40;38.63;;;22.02;;
77040;SDS011;65974;42.664;23.264;2023-07-31T02:44:06;45.75;;;24.40;;
77040;SDS011;65974;42.664;23.264;2023-07-31T02:46:31;45.92;;;26.45;;
77040;SDS011;65974;42.664;23.264;2023-07-31T02:48:57;42.35;;;25.00;;
77040;SDS011;65974;42.664;23.264;2023-07-31T02:51:22;42.67;;;23.15;;
77040;SDS011;65974;42.664;23.264;2023-07-31T02:53:48;43.67;;;23.73;;
77040;SDS011;65974;42.664;23.264;2023-07-31T02:56:13;51.08;;;25.38;;
77040;SDS011;65974;42.664;23.264;2023-07-31T02:58:40;44.58;;;24.98;;
77040;SDS011;65974;42.664;23.264;2023-07-31T03:01:07;46.63;;;25.83;;
77040;SDS011;65974;42.664;23.264;2023-07-31T03:03:32;47.03;;;26.13;;
77040;SDS011;65974;42.664;23.264;2023-07-31T03:05:58;42.63;;;24.00;;
77040;SDS011;65974;42.664;23.264;2023-07-31T03:08:23;42.10;;;22.88;;
77040;SDS011;65974;42.664;23.264;2023-07-31T03:10:49;42.90;;;23.25;;
77040;SDS011;65974;42.664;23.264;2023-07-31T03:13:14;41.47;;;23.45;;
77040;SDS011;65974;42.664;23.264;2023-07-31T03:15:42;47.00;;;24.70;;
77040;SDS011;65974;42.664;23.264;2023-07-31T03:18:08;44.40;;;25.08;;
77040;SDS011;65974;42.664;23.264;2023-07-31T03:20:33;46.05;;;25.52;;
77040;SDS011;65974;42.664;23.264;2023-07-31T03:22:59;52.30;;;25.92;;
77040;SDS011;65974;42.664;23.264;2023-07-31T03:25:24;45.90;;;26.05;;
77040;SDS011;65974;42.664;23.264;2023-07-31T03:27:50;43.72;;;22.92;;
77040;SDS011;65974;42.664;23.264;2023-07-31T03:30:15;47.03;;;24.67;;
77040;SDS011;65974;42.664;23.264;2023-07-31T03:32:40;45.70;;;26.00;;
77040;SDS011;65974;42.664;23.264;2023-07-31T03:35:06;48.25;;;25.40;;
77040;SDS011;65974;42.664;23.264;2023-07-31T03:37:31;46.22;;;25.10;;
77040;SDS011;65974;42.664;23.264;2023-07-31T03:39:57;45.47;;;24.65;;
77040;SDS011;65974;42.664;23.264;2023-07-31T03:42:22;46.58;;;24.45;;
77040;SDS011;65974;42.664;23.264;2023-07-31T03:44:48;46.92;;;24.52;;
77040;SDS011;65974;42.664;23.264;2023-07-31T03:47:13;49.67;;;25.58;;
77040;SDS011;65974;42.664;23.264;2023-07-31T03:49:39;47.50;;;24.63;;
77040;SDS011;65974;42.664;23.264;2023-07-31T03:52:04;49.03;;;25.33;;
77040;SDS011;65974;42.664;23.264;2023-07-31T03:54:30;44.78;;;24.52;;
77040;SDS011;65974;42.664;23.264;2023-07-31T03:56:55;49.55;;;24.67;;
77040;SDS011;65974;42.664;23.264;2023-07-31T03:59:20;46.95;;;25.25;;
77040;SDS011;65974;42.664;23.264;2023-07-31T04:01:47;50.15;;;25.17;;
77040;SDS011;65974;42.664;23.264;2023-07-31T04:04:12;49.38;;;25.02;;
77040;SDS011;65974;42.664;23.264;2023-07-31T04:06:38;50.95;;;26.17;;
77040;SDS011;65974;42.664;23.264;2023-07-31T04:09:03;53.50;;;24.17;;
77040;SDS011;65974;42.664;23.264;2023-07-31T04:11:28;48.05;;;25.40;;
77040;SDS011;65974;42.664;23.264;2023-07-31T04:13:54;51.22;;;26.60;;
77040;SDS011;65974;42.664;23.264;2023-07-31T04:16:19;51.95;;;25.73;;
77040;SDS011;65974;42.664;23.264;2023-07-31T04:18:45;49.35;;;23.88;;
77040;SDS011;65974;42.664;23.264;2023-07-31T04:21:10;47.72;;;23.52;;
77040;SDS011;65974;42.664;23.264;2023-07-31T04:23:35;51.42;;;27.08;;
77040;SDS011;65974;42.664;23.264;2023-07-31T04:26:01;46.00;;;23.58;;
77040;SDS011;65974;42.664;23.264;2023-07-31T04:28:26;50.13;;;24.85;;
77040;SDS011;65974;42.664;23.264;2023-07-31T04:30:52;42.65;;;23.30;;
77040;SDS011;65974;42.664;23.264;2023-07-31T04:33:18;43.13;;;23.67;;
77040;SDS011;65974;42.664;23.264;2023-07-31T04:35:54;48.80;;;23.73;;
77040;SDS011;65974;42.664;23.264;2023-07-31T04:38:19;44.00;;;23.13;;
77040;SDS011;65974;42.664;23.264;2023-07-31T04:40:46;43.53;;;21.98;;
77040;SDS011;65974;42.664;23.264;2023-07-31T04:43:12;51.05;;;23.30;;
77040;SDS011;65974;42.664;23.264;2023-07-31T04:45:37;44.72;;;22.85;;
77040;SDS011;65974;42.664;23.264;2023-07-31T04:48:03;40.90;;;20.67;;
77040;SDS011;65974;42.664;23.264;2023-07-31T04:50:29;42.10;;;21.35;;
77040;SDS011;65974;42.664;23.264;2023-07-31T04:52:55;40.53;;;20.67;;
77040;SDS011;65974;42.664;23.264;2023-07-31T04:55:21;42.15;;;21.70;;
77040;SDS011;65974;42.664;23.264;2023-07-31T04:57:46;43.08;;;20.85;;
77040;SDS011;65974;42.664;23.264;2023-07-31T05:00:12;46.05;;;23.55;;
77040;SDS011;65974;42.664;23.264;2023-07-31T05:02:37;39.30;;;21.83;;
77040;SDS011;65974;42.664;23.264;2023-07-31T05:05:03;40.75;;;22.13;;
77040;SDS011;65974;42.664;23.264;2023-07-31T05:07:28;39.47;;;20.25;;
77040;SDS011;65974;42.664;23.264;2023-07-31T05:09:54;33.30;;;18.17;;
77040;SDS011;65974;42.664;23.264;2023-07-31T05:12:19;35.28;;;18.77;;
77040;SDS011;65974;42.664;23.264;2023-07-31T05:14:44;37.10;;;20.90;;
77040;SDS011;65974;42.664;23.264;2023-07-31T05:17:10;37.90;;;21.02;;
77040;SDS011;65974;42.664;23.264;2023-07-31T05:19:35;38.65;;;20.42;;
77040;SDS011;65974;42.664;23.264;2023-07-31T05:22:01;37.60;;;19.50;;
77040;SDS011;65974;42.664;23.264;2023-07-31T05:24:26;32.78;;;19.30;;
77040;SDS011;65974;42.664;23.264;2023-07-31T05:26:51;34.15;;;18.02;;
77040;SDS011;65974;42.664;23.264;2023-07-31T05:29:17;31.42;;;18.33;;
77040;SDS011;65974;42.664;23.264;2023-07-31T05:31:42;32.38;;;17.85;;
77040;SDS011;65974;42.664;23.264;2023-07-31T05:34:08;29.67;;;17.30;;
77040;SDS011;65974;42.664;23.264;2023-07-31T05:36:33;29.42;;;15.88;;
77040;SDS011;65974;42.664;23.264;2023-07-31T05:38:59;27.50;;;15.65;;
77040;SDS011;65974;42.664;23.264;2023-07-31T05:41:24;23.30;;;14.32;;
77040;SDS011;65974;42.664;23.264;2023-07-31T05:43:50;26.58;;;13.32;;
77040;SDS011;65974;42.664;23.264;2023-07-31T05:46:16;19.08;;;11.55;;
77040;SDS011;65974;42.664;23.264;2023-07-31T05:48:42;20.45;;;12.68;;
77040;SDS011;65974;42.664;23.264;2023-07-31T05:51:07;25.35;;;14.38;;
77040;SDS011;65974;42.664;23.264;2023-07-31T05:53:32;23.40;;;14.07;;
77040;SDS011;65974;42.664;23.264;2023-07-31T05:55:58;26.95;;;14.60;;
77040;SDS011;65974;42.664;23.264;2023-07-31T05:58:23;20.30;;;11.90;;
77040;SDS011;65974;42.664;23.264;2023-07-31T06:00:49;19.63;;;11.70;;
77040;SDS011;65974;42.664;23.264;2023-07-31T06:03:14;21.65;;;13.18;;
77040;SDS011;65974;42.664;23.264;2023-07-31T06:05:40;18.25;;;10.68;;
77040;SDS011;65974;42.664;23.264;2023-07-31T06:08:06;14.35;;;9.02;;
77040;SDS011;65974;42.664;23.264;2023-07-31T06:10:31;14.38;;;8.63;;
77040;SDS011;65974;42.664;23.264;2023-07-31T06:12:56;10.10;;;6.80;;
77040;SDS011;65974;42.664;23.264;2023-07-31T06:15:22;10.65;;;7.25;;
77040;SDS011;65974;42.664;23.264;2023-07-31T06:17:47;10.63;;;6.53;;
77040;SDS011;65974;42.664;23.264;2023-07-31T06:20:13;9.48;;;6.57;;
77040;SDS011;65974;42.664;23.264;2023-07-31T06:22:38;10.23;;;6.75;;
77040;SDS011;65974;42.664;23.264;2023-07-31T06:25:04;14.13;;;6.97;;
77040;SDS011;65974;42.664;23.264;2023-07-31T06:27:30;10.48;;;6.63;;
77040;SDS011;65974;42.664;23.264;2023-07-31T06:29:56;11.82;;;7.22;;
77040;SDS011;65974;42.664;23.264;2023-07-31T06:32:21;10.43;;;6.60;;
77040;SDS011;65974;42.664;23.264;2023-07-31T06:34:47;13.80;;;7.43;;
77040;SDS011;65974;42.664;23.264;2023-07-31T06:37:12;14.52;;;7.95;;
77040;SDS011;65974;42.664;23.264;2023-07-31T06:39:38;12.52;;;7.70;;
77040;SDS011;65974;42.664;23.264;2023-07-31T06:42:03;12.80;;;5.97;;
77040;SDS011;65974;42.664;23.264;2023-07-31T06:44:29;11.93;;;7.78;;
77040;SDS011;65974;42.664;23.264;2023-07-31T06:46:54;12.98;;;7.20;;
77040;SDS011;65974;42.664;23.264;2023-07-31T06:49:20;9.18;;;6.25;;
77040;SDS011;65974;42.664;23.264;2023-07-31T06:51:45;12.27;;;7.07;;
77040;SDS011;65974;42.664;23.264;2023-07-31T06:54:11;9.20;;;5.47;;
77040;SDS011;65974;42.664;23.264;2023-07-31T06:56:36;11.82;;;5.90;;
77040;SDS011;65974;42.664;23.264;2023-07-31T06:59:03;10.13;;;5.47;;
77040;SDS011;65974;42.664;23.264;2023-07-31T07:01:28;8.10;;;5.25;;
77040;SDS011;65974;42.664;23.264;2023-07-31T07:03:54;7.53;;;4.28;;
77040;SDS011;65974;42.664;23.264;2023-07-31T07:06:19;7.07;;;4.55;;
77040;SDS011;65974;42.664;23.264;2023-07-31T07:08:45;11.27;;;5.43;;
77040;SDS011;65974;42.664;23.264;2023-07-31T07:11:10;7.88;;;4.68;;
77040;SDS011;65974;42.664;23.264;2023-07-31T07:13:36;9.38;;;4.53;;
77040;SDS011;65974;42.664;23.264;2023-07-31T07:16:01;7.47;;;4.72;;
77040;SDS011;65974;42.664;23.264;2023-07-31T07:18:27;7.50;;;4.88;;
77040;SDS011;65974;42.664;23.264;2023-07-31T07:20:53;10.07;;;4.15;;
77040;SDS011;65974;42.664;23.264;2023-07-31T07:23:19;8.52;;;4.38;;
77040;SDS011;65974;42.664;23.264;2023-07-31T07:25:46;7.88;;;4.15;;
77040;SDS011;65974;42.664;23.264;2023-07-31T07:28:12;8.15;;;4.00;;
77040;SDS011;65974;42.664;23.264;2023-07-31T07:30:39;6.65;;;4.28;;
77040;SDS011;65974;42.664;23.264;2023-07-31T07:33:04;12.18;;;5.90;;
77040;SDS011;65974;42.664;23.264;2023-07-31T07:35:32;11.57;;;5.10;;
77040;SDS011;65974;42.664;23.264;2023-07-31T07:37:59;8.00;;;4.85;;
77040;SDS011;65974;42.664;23.264;2023-07-31T07:40:25;7.28;;;4.57;;
77040;SDS011;65974;42.664;23.264;2023-07-31T07:42:51;8.32;;;4.60;;
77040;SDS011;65974;42.664;23.264;2023-07-31T07:45:17;7.38;;;3.97;;
77040;SDS011;65974;42.664;23.264;2023-07-31T07:47:42;6.75;;;4.13;;
77040;SDS011;65974;42.664;23.264;2023-07-31T07:50:08;6.75;;;3.65;;
77040;SDS011;65974;42.664;23.264;2023-07-31T07:52:34;7.13;;;4.03;;
77040;SDS011;65974;42.664;23.264;2023-07-31T07:54:59;9.25;;;4.18;;
77040;SDS011;65974;42.664;23.264;2023-07-31T07:57:25;8.23;;;4.22;;
77040;SDS011;65974;42.664;23.264;2023-07-31T07:59:52;6.55;;;4.32;;
77040;SDS011;65974;42.664;23.264;2023-07-31T08:02:17;11.30;;;4.95;;
77040;SDS011;65974;42.664;23.264;2023-07-31T08:04:43;7.13;;;4.07;;
77040;SDS011;65974;42.664;23.264;2023-07-31T08:07:10;8.43;;;4.15;;
77040;SDS011;65974;42.664;23.264;2023-07-31T08:09:37;6.03;;;3.97;;
77040;SDS011;65974;42.664;23.264;2023-07-31T08:12:02;8.18;;;4.38;;
77040;SDS011;65974;42.664;23.264;2023-07-31T08:14:29;6.82;;;4.60;;
77040;SDS011;65974;42.664;23.264;2023-07-31T08:16:54;8.65;;;4.13;;
77040;SDS011;65974;42.664;23.264;2023-07-31T08:19:20;9.85;;;4.28;;
77040;SDS011;65974;42.664;23.264;2023-07-31T08:21:45;9.57;;;4.97;;
77040;SDS011;65974;42.664;23.264;2023-07-31T08:24:10;6.50;;;3.95;;
77040;SDS011;65974;42.664;23.264;2023-07-31T08:26:36;11.30;;;3.35;;
77040;SDS011;65974;42.664;23.264;2023-07-31T08:29:01;6.43;;;4.15;;
77040;SDS011;65974;42.664;23.264;2023-07-31T08:31:27;7.20;;;4.03;;
77040;SDS011;65974;42.664;23.264;2023-07-31T08:33:54;7.60;;;3.58;;
77040;SDS011;65974;42.664;23.264;2023-07-31T08:36:19;6.80;;;4.05;;
77040;SDS011;65974;42.664;23.264;2023-07-31T08:38:45;7.07;;;4.57;;
77040;SDS011;65974;42.664;23.264;2023-07-31T08:41:10;6.40;;;4.45;;
77040;SDS011;65974;42.664;23.264;2023-07-31T08:43:37;7.88;;;4.03;;
77040;SDS011;65974;42.664;23.264;2023-07-31T08:46:03;6.07;;;3.85;;
77040;SDS011;65974;42.664;23.264;2023-07-31T08:48:29;9.30;;;4.32;;
77040;SDS011;65974;42.664;23.264;2023-07-31T08:50:56;8.43;;;4.45;;
77040;SDS011;65974;42.664;23.264;2023-07-31T08:53:21;8.95;;;4.15;;
77040;SDS011;65974;42.664;23.264;2023-07-31T08:55:47;5.40;;;3.72;;
77040;SDS011;65974;42.664;23.264;2023-07-31T08:58:13;6.93;;;4.07;;
77040;SDS011;65974;42.664;23.264;2023-07-31T09:00:40;8.77;;;3.88;;
77040;SDS011;65974;42.664;23.264;2023-07-31T09:03:09;6.05;;;3.28;;
77040;SDS011;65974;42.664;23.264;2023-07-31T09:05:39;5.55;;;4.15;;
77040;SDS011;65974;42.664;23.264;2023-07-31T09:08:09;5.93;;;3.97;;
77040;SDS011;65974;42.664;23.264;2023-07-31T09:10:39;10.10;;;4.50;;
77040;SDS011;65974;42.664;23.264;2023-07-31T09:13:06;10.90;;;3.92;;
77040;SDS011;65974;42.664;23.264;2023-07-31T09:15:32;6.80;;;3.78;;
77040;SDS011;65974;42.664;23.264;2023-07-31T09:18:01;5.72;;;3.55;;
77040;SDS011;65974;42.664;23.264;2023-07-31T09:20:28;8.40;;;4.03;;
77040;SDS011;65974;42.664;23.264;2023-07-31T09:22:54;8.20;;;4.10;;
77040;SDS011;65974;42.664;23.264;2023-07-31T09:25:21;7.50;;;4.05;;
77040;SDS011;65974;42.664;23.264;2023-07-31T09:27:57;6.88;;;4.30;;
77040;SDS011;65974;42.664;23.264;2023-07-31T09:30:25;9.95;;;4.65;;
77040;SDS011;65974;42.664;23.264;2023-07-31T09:32:51;8.57;;;3.97;;
77040;SDS011;65974;42.664;23.264;2023-07-31T09:35:31;9.82;;;4.32;;
77040;SDS011;65974;42.664;23.264;2023-07-31T09:37:58;6.78;;;4.10;;
77040;SDS011;65974;42.664;23.264;2023-07-31T09:40:32;8.00;;;4.10;;
77040;SDS011;65974;42.664;23.264;2023-07-31T09:43:03;6.95;;;3.53;;
77040;SDS011;65974;42.664;23.264;2023-07-31T09:45:30;6.22;;;3.90;;
77040;SDS011;65974;42.664;23.264;2023-07-31T09:47:58;8.30;;;3.60;;
77040;SDS011;65974;42.664;23.264;2023-07-31T09:50:24;7.47;;;4.55;;
77040;SDS011;65974;42.664;23.264;2023-07-31T09:52:50;7.85;;;3.75;;
77040;SDS011;65974;42.664;23.264;2023-07-31T09:55:19;6.28;;;3.85;;
77040;SDS011;65974;42.664;23.264;2023-07-31T09:57:46;6.35;;;3.97;;
77040;SDS011;65974;42.664;23.264;2023-07-31T10:00:13;5.00;;;3.03;;
77040;SDS011;65974;42.664;23.264;2023-07-31T10:05:06;10.00;;;4.25;;
77040;SDS011;65974;42.664;23.264;2023-07-31T10:07:37;8.75;;;3.47;;
77040;SDS011;65974;42.664;23.264;2023-07-31T10:10:09;6.10;;;3.50;;
77040;SDS011;65974;42.664;23.264;2023-07-31T10:12:35;8.30;;;3.47;;
77040;SDS011;65974;42.664;23.264;2023-07-31T10:15:01;14.98;;;3.78;;
77040;SDS011;65974;42.664;23.264;2023-07-31T10:17:28;48.40;;;9.68;;
77040;SDS011;65974;42.664;23.264;2023-07-31T10:19:54;6.28;;;2.58;;
77040;SDS011;65974;42.664;23.264;2023-07-31T10:22:23;19.30;;;4.68;;
77040;SDS011;65974;42.664;23.264;2023-07-31T10:24:50;26.48;;;6.60;;
77040;SDS011;65974;42.664;23.264;2023-07-31T10:27:15;8.90;;;4.50;;
77040;SDS011;65974;42.664;23.264;2023-07-31T10:29:41;4.72;;;3.10;;
77040;SDS011;65974;42.664;23.264;2023-07-31T10:32:09;8.65;;;3.47;;
77040;SDS011;65974;42.664;23.264;2023-07-31T10:34:37;59.00;;;8.95;;
77040;SDS011;65974;42.664;23.264;2023-07-31T10:43:07;5.97;;;2.83;;
77040;SDS011;65974;42.664;23.264;2023-07-31T10:45:23;6.13;;;2.78;;
77040;SDS011;65974;42.664;23.264;2023-07-31T10:48:03;17.52;;;3.83;;
77040;SDS011;65974;42.664;23.264;2023-07-31T10:50:38;6.75;;;2.63;;
77040;SDS011;65974;42.664;23.264;2023-07-31T10:53:21;5.05;;;2.42;;
77040;SDS011;65974;42.664;23.264;2023-07-31T10:55:58;11.93;;;3.78;;
77040;SDS011;65974;42.664;23.264;2023-07-31T10:58:24;4.93;;;2.55;;
77040;SDS011;65974;42.664;23.264;2023-07-31T11:00:51;6.43;;;2.88;;
77040;SDS011;65974;42.664;23.264;2023-07-31T11:03:24;4.65;;;2.22;;
77040;SDS011;65974;42.664;23.264;2023-07-31T11:05:52;5.72;;;2.95;;
77040;SDS011;65974;42.664;23.264;2023-07-31T11:08:25;5.47;;;2.92;;
77040;SDS011;65974;42.664;23.264;2023-07-31T11:13:26;5.43;;;2.30;;
77040;SDS011;65974;42.664;23.264;2023-07-31T11:15:52;3.88;;;2.53;;
77040;SDS011;65974;42.664;23.264;2023-07-31T11:18:18;5.82;;;2.05;;
77040;SDS011;65974;42.664;23.264;2023-07-31T11:20:43;8.98;;;2.47;;
77040;SDS011;65974;42.664;23.264;2023-07-31T11:23:09;4.88;;;2.53;;
77040;SDS011;65974;42.664;23.264;2023-07-31T11:25:36;3.83;;;2.55;;
77040;SDS011;65974;42.664;23.264;2023-07-31T11:28:06;6.93;;;3.00;;
77040;SDS011;65974;42.664;23.264;2023-07-31T11:30:35;6.22;;;2.78;;
77040;SDS011;65974;42.664;23.264;2023-07-31T11:33:02;6.05;;;2.83;;
77040;SDS011;65974;42.664;23.264;2023-07-31T11:35:32;6.35;;;2.90;;
77040;SDS011;65974;42.664;23.264;2023-07-31T11:37:59;5.05;;;2.85;;
77040;SDS011;65974;42.664;23.264;2023-07-31T11:40:25;4.88;;;2.75;;
77040;SDS011;65974;42.664;23.264;2023-07-31T11:42:57;8.23;;;4.15;;
77040;SDS011;65974;42.664;23.264;2023-07-31T11:45:26;5.35;;;3.55;;
77040;SDS011;65974;42.664;23.264;2023-07-31T11:47:56;6.43;;;3.45;;
77040;SDS011;65974;42.664;23.264;2023-07-31T11:50:40;8.40;;;3.72;;
77040;SDS011;65974;42.664;23.264;2023-07-31T11:53:06;6.22;;;3.67;;
77040;SDS011;65974;42.664;23.264;2023-07-31T11:55:33;6.05;;;3.20;;
77040;SDS011;65974;42.664;23.264;2023-07-31T11:57:59;6.13;;;3.42;;
77040;SDS011;65974;42.664;23.264;2023-07-31T12:00:25;7.55;;;4.47;;
77040;SDS011;65974;42.664;23.264;2023-07-31T12:02:52;12.50;;;4.40;;
77040;SDS011;65974;42.664;23.264;2023-07-31T12:05:18;8.13;;;4.65;;
77040;SDS011;65974;42.664;23.264;2023-07-31T12:10:29;9.43;;;3.85;;
77040;SDS011;65974;42.664;23.264;2023-07-31T12:12:57;8.15;;;5.05;;
77040;SDS011;65974;42.664;23.264;2023-07-31T12:15:33;10.32;;;5.05;;
77040;SDS011;65974;42.664;23.264;2023-07-31T12:18:13;9.23;;;5.60;;
77040;SDS011;65974;42.664;23.264;2023-07-31T12:20:43;7.20;;;5.63;;
77040;SDS011;65974;42.664;23.264;2023-07-31T12:23:34;11.82;;;7.38;;
77040;SDS011;65974;42.664;23.264;2023-07-31T12:26:20;10.27;;;6.47;;
77040;SDS011;65974;42.664;23.264;2023-07-31T12:28:45;11.45;;;7.05;;
77040;SDS011;65974;42.664;23.264;2023-07-31T12:31:13;11.65;;;6.57;;
77040;SDS011;65974;42.664;23.264;2023-07-31T12:36:12;11.27;;;7.38;;
77040;SDS011;65974;42.664;23.264;2023-07-31T12:38:40;10.80;;;6.07;;
77040;SDS011;65974;42.664;23.264;2023-07-31T12:41:06;9.73;;;5.60;;
77040;SDS011;65974;42.664;23.264;2023-07-31T12:43:32;9.23;;;6.13;;
77040;SDS011;65974;42.664;23.264;2023-07-31T12:46:01;10.75;;;6.63;;
77040;SDS011;65974;42.664;23.264;2023-07-31T12:48:26;7.65;;;5.70;;
77040;SDS011;65974;42.664;23.264;2023-07-31T12:50:52;10.93;;;6.57;;
77040;SDS011;65974;42.664;23.264;2023-07-31T12:53:17;11.57;;;6.80;;
77040;SDS011;65974;42.664;23.264;2023-07-31T12:55:43;11.27;;;7.45;;
77040;SDS011;65974;42.664;23.264;2023-07-31T12:58:09;9.38;;;6.65;;
77040;SDS011;65974;42.664;23.264;2023-07-31T13:00:34;10.52;;;7.30;;
77040;SDS011;65974;42.664;23.264;2023-07-31T13:03:00;8.68;;;6.10;;
77040;SDS011;65974;42.664;23.264;2023-07-31T13:05:26;9.77;;;7.15;;
77040;SDS011;65974;42.664;23.264;2023-07-31T13:07:52;10.10;;;7.85;;
77040;SDS011;65974;42.664;23.264;2023-07-31T13:10:17;13.80;;;8.27;;
77040;SDS011;65974;42.664;23.264;2023-07-31T13:12:43;12.40;;;7.45;;
77040;SDS011;65974;42.664;23.264;2023-07-31T13:15:08;10.77;;;7.22;;
77040;SDS011;65974;42.664;23.264;2023-07-31T13:17:34;8.40;;;6.07;;
77040;SDS011;65974;42.664;23.264;2023-07-31T13:20:00;11.13;;;7.80;;
77040;SDS011;65974;42.664;23.264;2023-07-31T13:22:26;11.20;;;6.15;;
77040;SDS011;65974;42.664;23.264;2023-07-31T13:24:51;9.45;;;6.80;;
77040;SDS011;65974;42.664;23.264;2023-07-31T13:27:17;8.73;;;6.35;;
77040;SDS011;65974;42.664;23.264;2023-07-31T13:32:10;7.55;;;4.90;;
77040;SDS011;65974;42.664;23.264;2023-07-31T13:34:35;8.68;;;5.95;;
77040;SDS011;65974;42.664;23.264;2023-07-31T13:37:01;6.80;;;5.38;;
77040;SDS011;65974;42.664;23.264;2023-07-31T13:39:26;9.05;;;5.60;;
77040;SDS011;65974;42.664;23.264;2023-07-31T13:41:52;7.43;;;5.20;;
77040;SDS011;65974;42.664;23.264;2023-07-31T13:44:17;9.93;;;6.57;;
77040;SDS011;65974;42.664;23.264;2023-07-31T13:46:43;7.38;;;5.38;;
77040;SDS011;65974;42.664;23.264;2023-07-31T13:49:08;7.97;;;5.65;;
77040;SDS011;65974;42.664;23.264;2023-07-31T13:51:33;9.07;;;5.20;;
77040;SDS011;65974;42.664;23.264;2023-07-31T13:54:00;9.48;;;5.63;;
77040;SDS011;65974;42.664;23.264;2023-07-31T13:56:26;9.13;;;6.50;;
77040;SDS011;65974;42.664;23.264;2023-07-31T13:58:52;10.93;;;7.95;;
77040;SDS011;65974;42.664;23.264;2023-07-31T14:01:17;9.68;;;5.65;;
77040;SDS011;65974;42.664;23.264;2023-07-31T14:03:43;9.80;;;6.53;;
77040;SDS011;65974;42.664;23.264;2023-07-31T14:06:09;10.85;;;5.82;;
77040;SDS011;65974;42.664;23.264;2023-07-31T14:08:34;8.20;;;5.88;;
77040;SDS011;65974;42.664;23.264;2023-07-31T14:11:00;8.25;;;5.93;;
77040;SDS011;65974;42.664;23.264;2023-07-31T14:13:25;9.57;;;5.28;;
77040;SDS011;65974;42.664;23.264;2023-07-31T14:15:50;10.13;;;5.72;;
77040;SDS011;65974;42.664;23.264;2023-07-31T14:18:16;7.32;;;5.00;;
77040;SDS011;65974;42.664;23.264;2023-07-31T14:20:41;7.65;;;5.43;;
77040;SDS011;65974;42.664;23.264;2023-07-31T14:23:07;8.00;;;5.88;;
77040;SDS011;65974;42.664;23.264;2023-07-31T14:25:32;7.05;;;4.57;;
77040;SDS011;65974;42.664;23.264;2023-07-31T14:27:57;6.72;;;4.45;;
77040;SDS011;65974;42.664;23.264;2023-07-31T14:30:23;8.00;;;5.22;;
77040;SDS011;65974;42.664;23.264;2023-07-31T14:32:48;6.95;;;4.95;;
77040;SDS011;65974;42.664;23.264;2023-07-31T14:35:14;7.03;;;4.20;;
77040;SDS011;65974;42.664;23.264;2023-07-31T14:37:40;8.75;;;4.95;;
77040;SDS011;65974;42.664;23.264;2023-07-31T14:40:10;5.82;;;4.43;;
77040;SDS011;65974;42.664;23.264;2023-07-31T14:42:36;7.10;;;4.32;;
77040;SDS011;65974;42.664;23.264;2023-07-31T14:45:05;6.32;;;5.00;;
77040;SDS011;65974;42.664;23.264;2023-07-31T14:47:32;8.93;;;4.75;;